createdAt,value
2023-03-10T00:02:48.037Z,999.26
2023-03-10T00:07:55.656Z,999.26
2023-03-10T00:13:03.090Z,999.17
2023-03-10T00:18:10.395Z,999.07
2023-03-10T00:23:17.800Z,998.90
2023-03-10T00:28:25.419Z,998.75
2023-03-10T00:33:35.296Z,998.64
2023-03-10T00:38:41.011Z,998.46
2023-03-10T00:43:48.471Z,998.31
2023-03-10T00:48:56.081Z,998.32
2023-03-10T00:54:06.676Z,998.25
2023-03-10T00:59:17.148Z,998.13
2023-03-10T01:04:24.686Z,998.13
2023-03-10T01:09:32.155Z,998.08
2023-03-10T01:14:39.636Z,997.93
2023-03-10T01:19:47.086Z,997.76
2023-03-10T01:24:54.511Z,997.71
2023-03-10T01:30:02.086Z,997.58
2023-03-10T01:35:09.403Z,997.58
2023-03-10T01:40:16.956Z,997.46
2023-03-10T01:45:24.280Z,997.40
2023-03-10T01:50:34.685Z,997.23
2023-03-10T01:55:42.193Z,997.21
2023-03-10T02:00:49.594Z,997.27
2023-03-10T02:05:56.802Z,997.27
2023-03-10T02:11:04.221Z,997.31
2023-03-10T02:16:11.661Z,997.52
2023-03-10T02:21:19.084Z,997.78
2023-03-10T02:26:26.429Z,997.91
2023-03-10T02:31:33.878Z,998.08
2023-03-10T02:36:41.121Z,998.09
2023-03-10T02:41:48.530Z,998.02
2023-03-10T02:46:55.933Z,997.97
2023-03-10T02:52:03.238Z,997.90
2023-03-10T02:57:10.542Z,997.83
2023-03-10T03:02:17.839Z,997.96
2023-03-10T03:07:25.066Z,997.88
2023-03-10T03:12:32.306Z,997.88
2023-03-10T03:17:39.699Z,997.92
2023-03-10T03:22:46.913Z,997.93
2023-03-10T03:27:54.183Z,997.81
2023-03-10T03:33:01.455Z,997.77
2023-03-10T03:38:08.647Z,997.83
2023-03-10T03:43:16.031Z,997.78
2023-03-10T03:48:23.356Z,997.96
2023-03-10T03:53:30.383Z,998.06
2023-03-10T03:58:37.594Z,998.10
2023-03-10T04:03:44.929Z,998.15
2023-03-10T04:08:52.076Z,998.02
2023-03-10T04:13:59.347Z,997.95
2023-03-10T04:19:06.560Z,997.84
2023-03-10T04:24:13.715Z,997.78
2023-03-10T04:29:20.942Z,997.80
2023-03-10T04:34:28.207Z,997.66
2023-03-10T04:39:35.336Z,997.45
2023-03-10T04:44:42.538Z,997.53
2023-03-10T04:49:49.972Z,997.41
2023-03-10T04:54:57.136Z,997.37
2023-03-10T05:00:04.424Z,997.34
2023-03-10T05:05:11.606Z,997.06
2023-03-10T05:10:18.770Z,997.00
2023-03-10T05:15:26.001Z,996.84
2023-03-10T05:20:33.285Z,996.67
2023-03-10T05:25:40.415Z,996.75
2023-03-10T05:30:47.614Z,996.75
2023-03-10T05:35:54.961Z,996.83
2023-03-10T05:41:02.088Z,996.72
2023-03-10T05:46:09.259Z,996.61
2023-03-10T05:51:16.537Z,996.38
2023-03-10T05:56:23.727Z,996.37
2023-03-10T06:01:30.905Z,996.25
2023-03-10T06:06:38.116Z,996.20
2023-03-10T06:11:45.768Z,996.15
2023-03-10T06:16:53.069Z,996.18
2023-03-10T06:22:00.169Z,996.12
2023-03-10T06:27:07.337Z,995.93
2023-03-10T06:32:14.570Z,995.95
2023-03-10T06:37:21.732Z,995.82
2023-03-10T06:42:28.927Z,995.87
2023-03-10T06:47:36.191Z,995.86
2023-03-10T06:52:43.378Z,995.68
2023-03-10T06:57:50.549Z,995.66
2023-03-10T07:02:57.737Z,995.58
2023-03-10T07:08:04.970Z,995.60
2023-03-10T07:13:12.134Z,995.40
2023-03-10T07:18:19.323Z,995.42
2023-03-10T07:23:26.627Z,995.23
2023-03-10T07:28:33.875Z,995.32
2023-03-10T07:33:41.150Z,995.61
2023-03-10T07:38:48.359Z,995.72
2023-03-10T07:43:55.517Z,995.86
2023-03-10T07:49:02.801Z,996.04
2023-03-10T07:54:10.052Z,996.15
2023-03-10T07:59:17.359Z,996.49
2023-03-10T08:04:24.831Z,996.72
2023-03-10T08:09:31.851Z,996.71
2023-03-10T08:14:39.180Z,996.79
2023-03-10T08:19:46.193Z,997.19
2023-03-10T08:24:53.399Z,997.39
2023-03-10T08:30:00.689Z,997.36
2023-03-10T08:35:07.855Z,996.81
2023-03-10T08:40:15.066Z,997.15
2023-03-10T08:45:22.253Z,998.51
2023-03-10T08:50:29.532Z,998.77
2023-03-10T08:55:36.850Z,998.73
2023-03-10T09:00:44.055Z,998.65
2023-03-10T09:05:51.205Z,998.60
2023-03-10T09:10:58.463Z,998.68
2023-03-10T09:16:05.744Z,998.50
2023-03-10T09:21:12.849Z,998.39
2023-03-10T09:26:20.210Z,998.51
2023-03-10T09:31:27.356Z,998.40
2023-03-10T09:36:34.625Z,998.41
2023-03-10T09:41:41.917Z,998.41
2023-03-10T09:46:49.156Z,998.19
2023-03-10T09:51:56.448Z,998.42
2023-03-10T09:57:03.735Z,998.31
2023-03-10T10:02:10.978Z,998.26
2023-03-10T10:07:18.183Z,998.08
2023-03-10T10:12:25.389Z,998.06
2023-03-10T10:17:35.371Z,998.00
2023-03-10T10:22:39.731Z,997.82
2023-03-10T10:27:47.047Z,997.77
2023-03-10T10:32:54.495Z,997.59
2023-03-10T10:38:01.499Z,997.73
2023-03-10T10:43:08.770Z,997.65
2023-03-10T10:48:16.039Z,997.55
2023-03-10T10:53:23.221Z,997.46
2023-03-10T10:58:30.461Z,997.45
2023-03-10T11:03:37.729Z,997.47
2023-03-10T11:08:44.896Z,997.59
2023-03-10T11:13:52.250Z,997.50
2023-03-10T11:18:59.499Z,997.49
2023-03-10T11:24:06.852Z,997.51
2023-03-10T11:29:14.228Z,997.74
2023-03-10T11:34:21.476Z,998.09
2023-03-10T11:39:28.777Z,998.18
2023-03-10T11:44:36.222Z,998.34
2023-03-10T11:49:43.573Z,998.62
2023-03-10T11:54:50.830Z,998.83
2023-03-10T11:59:58.064Z,998.78
2023-03-10T12:05:05.363Z,998.56
2023-03-10T12:10:12.652Z,998.66
2023-03-10T12:15:20.056Z,998.36
2023-03-10T12:20:27.163Z,998.66
2023-03-10T12:25:34.362Z,998.57
2023-03-10T12:30:41.572Z,998.84
2023-03-10T12:35:48.948Z,998.90
2023-03-10T12:40:56.305Z,998.41
2023-03-10T12:46:03.515Z,998.54
2023-03-10T12:51:10.669Z,998.63
2023-03-10T12:56:17.854Z,998.66
2023-03-10T13:01:25.199Z,998.76
2023-03-10T13:06:32.336Z,998.91
2023-03-10T13:11:39.611Z,998.92
2023-03-10T13:16:46.960Z,999.32
2023-03-10T13:21:54.323Z,999.01
2023-03-10T13:27:01.403Z,999.02
2023-03-10T13:32:08.889Z,999.00
2023-03-10T13:37:16.010Z,998.86
2023-03-10T13:42:28.377Z,999.15
2023-03-10T13:47:30.555Z,999.24
2023-03-10T13:52:37.748Z,999.44
2023-03-10T13:57:45.051Z,999.43
2023-03-10T14:02:52.345Z,999.33
2023-03-10T14:07:59.561Z,999.28
2023-03-10T14:13:06.775Z,999.26
2023-03-10T14:18:14.042Z,999.47
2023-03-10T14:23:21.307Z,999.29
2023-03-10T14:28:28.640Z,999.38
2023-03-10T14:33:35.901Z,999.59
2023-03-10T14:38:43.114Z,999.24
2023-03-10T14:43:50.604Z,999.30
2023-03-10T14:48:57.986Z,999.39
2023-03-10T14:54:05.310Z,999.52
2023-03-10T14:59:12.742Z,999.41
2023-03-10T15:04:20.190Z,999.39
2023-03-10T15:09:27.635Z,999.41
2023-03-10T15:14:35.098Z,999.70
2023-03-10T15:19:42.818Z,999.49
2023-03-10T15:24:50.359Z,999.49
2023-03-10T15:29:57.770Z,999.99
2023-03-10T15:35:05.191Z,999.77
2023-03-10T15:40:12.576Z,1000.49
2023-03-10T15:45:19.986Z,1000.77
2023-03-10T15:50:30.087Z,1000.56
2023-03-10T15:55:37.530Z,1001.35
2023-03-10T16:00:53.674Z,1001.37
2023-03-10T16:06:01.289Z,1001.06
2023-03-10T16:11:08.580Z,1001.39
2023-03-10T16:16:16.210Z,1001.15
2023-03-10T16:21:23.401Z,1001.67
2023-03-10T16:26:30.597Z,1001.86
2023-03-10T16:31:38.158Z,1001.92
2023-03-10T16:36:45.504Z,1002.07
2023-03-10T16:41:52.687Z,1001.68
2023-03-10T16:47:00.203Z,1001.59
2023-03-10T16:52:07.648Z,1001.97
2023-03-10T16:57:14.855Z,1001.57
2023-03-10T17:02:22.056Z,1001.72
2023-03-10T17:07:29.308Z,1001.57
2023-03-10T17:12:36.741Z,1001.37
2023-03-10T17:17:43.956Z,1001.47
2023-03-10T17:22:51.218Z,1001.68
2023-03-10T17:27:58.415Z,1001.66
2023-03-10T17:33:05.634Z,1001.90
2023-03-10T17:38:13.206Z,1001.97
2023-03-10T17:43:33.410Z,1001.80
2023-03-10T17:48:28.406Z,1001.74
2023-03-10T17:53:35.692Z,1001.65
2023-03-10T17:58:42.970Z,1001.96
2023-03-10T18:03:50.556Z,1001.73
2023-03-10T18:08:57.972Z,1002.24
2023-03-10T18:14:05.238Z,1002.06
2023-03-10T18:19:12.471Z,1002.40
2023-03-10T18:24:19.712Z,1002.66
2023-03-10T18:29:27.110Z,1002.55
2023-03-10T18:34:34.787Z,1002.53
2023-03-10T18:39:42.529Z,1002.23
2023-03-10T18:44:50.232Z,1001.98
2023-03-10T18:49:57.832Z,1001.98
2023-03-10T18:55:05.624Z,1001.96
2023-03-10T19:00:13.378Z,1001.95
2023-03-10T19:05:20.989Z,1002.19
2023-03-10T19:10:28.656Z,1002.19
2023-03-10T19:15:36.220Z,1002.51
2023-03-10T19:20:44.041Z,1002.55
2023-03-10T19:25:51.506Z,1002.30
2023-03-10T19:30:59.168Z,1002.53
2023-03-10T19:36:06.946Z,1002.89
2023-03-10T19:41:14.678Z,1002.83
2023-03-10T19:46:22.213Z,1002.95
2023-03-10T19:51:29.426Z,1002.98
2023-03-10T19:56:37.013Z,1002.97
2023-03-10T20:01:44.642Z,1003.16
2023-03-10T20:06:52.082Z,1003.29
2023-03-10T20:11:59.408Z,1003.78
2023-03-10T20:17:06.976Z,1003.60
2023-03-10T20:22:14.833Z,1003.90
2023-03-10T20:27:22.540Z,1003.94
2023-03-10T20:32:29.755Z,1003.75
2023-03-10T20:37:37.138Z,1003.88
2023-03-10T20:42:44.874Z,1003.92
2023-03-10T20:47:52.673Z,1004.07
2023-03-10T20:53:00.146Z,1004.24
2023-03-10T20:58:07.365Z,1004.31
2023-03-10T21:03:14.619Z,1004.71
2023-03-10T21:08:22.105Z,1004.64
2023-03-10T21:13:30.715Z,1004.51
2023-03-10T21:18:38.058Z,1004.60
2023-03-10T21:23:45.342Z,1004.57
2023-03-10T21:28:52.610Z,1004.56
2023-03-10T21:33:59.817Z,1004.64
2023-03-10T21:39:07.211Z,1004.56
2023-03-10T21:44:14.564Z,1004.62
2023-03-10T21:49:21.809Z,1004.89
2023-03-10T21:54:29.324Z,1004.99
2023-03-10T21:59:36.658Z,1005.43
2023-03-10T22:04:43.962Z,1005.95
2023-03-10T22:09:51.296Z,1005.99
2023-03-10T22:14:58.518Z,1006.16
2023-03-10T22:20:05.746Z,1006.13
2023-03-10T22:25:13.002Z,1006.11
2023-03-10T22:30:20.390Z,1006.08
2023-03-10T22:35:27.552Z,1006.30
2023-03-10T22:40:34.763Z,1006.22
2023-03-10T22:45:42.072Z,1006.22
2023-03-10T22:50:49.284Z,1005.98
2023-03-10T22:55:56.493Z,1005.87
2023-03-10T23:01:04.077Z,1005.95
2023-03-10T23:06:11.303Z,1005.94
2023-03-10T23:11:18.535Z,1005.90
2023-03-10T23:16:25.924Z,1006.01
2023-03-10T23:21:33.019Z,1005.87
2023-03-10T23:26:40.200Z,1006.19
2023-03-10T23:31:47.523Z,1006.29
2023-03-10T23:36:54.692Z,1006.24
2023-03-10T23:42:02.042Z,1006.33
2023-03-10T23:47:09.318Z,1006.40
2023-03-10T23:52:16.549Z,1006.36
2023-03-10T23:57:23.801Z,1006.24
